Time;durP1;ratioP1;P1;durP2;ratioP2;P2;SDS_P1;SDS_P2;PMS_P1;PMS_P2;Temp;Humidity;BMP_temperature;BMP_pressure;BME280_temperature;BME280_humidity;BME280_pressure;Samples;Min_cycle;Max_cycle;Signal;HPM_P1;HPM_P2
2024/01/15 00:01:54;;;;;;;21.87;11.27;;;-0.40;17.20;;;;;;5022963;28;20512;-67
2024/01/15 00:04:21;;;;;;;26.70;11.13;;;-0.40;17.00;;;;;;5023524;28;20485;-67
2024/01/15 00:06:48;;;;;;;22.10;10.70;;;-0.40;17.10;;;;;;5028417;28;20486;-66
2024/01/15 00:09:16;;;;;;;22.40;11.20;;;-0.40;17.20;;;;;;5027688;28;20586;-66
2024/01/15 00:11:43;;;;;;;21.40;12.70;;;-0.40;17.10;;;;;;5026500;28;20463;-66
2024/01/15 00:14:10;;;;;;;21.10;11.10;;;-0.40;17.10;;;;;;5025278;28;20561;-67
2024/01/15 00:16:36;;;;;;;22.47;11.50;;;-0.30;17.20;;;;;;5025889;28;21773;-66
2024/01/15 00:19:03;;;;;;;25.83;12.20;;;-0.40;17.20;;;;;;5025632;28;21038;-67
2024/01/15 00:21:30;;;;;;;23.20;12.13;;;-0.30;17.20;;;;;;5028546;28;20561;-66
2024/01/15 00:23:57;;;;;;;19.63;10.77;;;-0.30;17.10;;;;;;5027468;28;20454;-67
2024/01/15 00:26:25;;;;;;;21.50;11.50;;;-0.40;17.10;;;;;;5020008;28;20496;-66
2024/01/15 00:28:52;;;;;;;23.60;11.50;;;-0.40;17.10;;;;;;5028403;28;20497;-66
2024/01/15 00:31:19;;;;;;;23.90;13.17;;;-0.40;17.10;;;;;;5026073;28;20498;-67
2024/01/15 00:33:45;;;;;;;22.43;11.40;;;-0.40;17.10;;;;;;5025339;28;20495;-67
2024/01/15 00:36:12;;;;;;;20.00;10.43;;;-0.40;17.10;;;;;;5025283;28;20482;-67
2024/01/15 00:38:39;;;;;;;21.00;11.90;;;-0.40;17.10;;;;;;5025197;28;20562;-67
2024/01/15 00:41:06;;;;;;;27.17;12.17;;;-0.30;17.10;;;;;;5024055;28;20575;-67
2024/01/15 00:43:34;;;;;;;21.80;10.40;;;-0.40;17.00;;;;;;5026958;28;20551;-67
2024/01/15 00:46:03;;;;;;;21.77;11.70;;;-0.30;17.10;;;;;;5025128;28;20899;-66
2024/01/15 00:48:29;;;;;;;17.83;9.63;;;-0.40;16.80;;;;;;5023997;28;20614;-67
2024/01/15 00:50:56;;;;;;;19.57;10.73;;;-0.40;16.90;;;;;;5022048;28;20454;-67
2024/01/15 00:53:23;;;;;;;22.33;10.87;;;-0.30;16.80;;;;;;5025654;28;20462;-67
2024/01/15 00:55:50;;;;;;;19.40;10.47;;;-0.40;16.80;;;;;;5023574;28;20461;-67
2024/01/15 00:58:16;;;;;;;21.73;10.20;;;-0.40;16.80;;;;;;5019379;28;20486;-67
2024/01/15 01:00:44;;;;;;;21.63;10.57;;;-0.40;16.80;;;;;;5026931;28;20481;-67
2024/01/15 01:03:11;;;;;;;25.53;12.60;;;-0.40;16.80;;;;;;5028365;28;21196;-67
2024/01/15 01:05:38;;;;;;;20.47;10.83;;;-0.40;16.80;;;;;;5027423;28;20458;-68
2024/01/15 01:08:05;;;;;;;18.80;10.50;;;-0.40;16.90;;;;;;5026761;28;20489;-67
2024/01/15 01:10:32;;;;;;;19.90;10.63;;;-0.40;16.90;;;;;;5025212;28;20589;-66
2024/01/15 01:12:59;;;;;;;24.03;11.20;;;-0.40;16.90;;;;;;5027644;28;20466;-67
2024/01/15 01:15:27;;;;;;;21.50;9.43;;;-0.30;17.10;;;;;;5028060;28;20466;-68
2024/01/15 01:17:55;;;;;;;19.63;9.60;;;-0.30;17.10;;;;;;5027542;28;20467;-67
2024/01/15 01:20:22;;;;;;;19.63;10.37;;;-0.20;17.20;;;;;;5045770;28;20474;-67
2024/01/15 01:22:48;;;;;;;19.63;10.53;;;-0.20;17.20;;;;;;5050829;28;20455;-67
2024/01/15 01:25:15;;;;;;;20.20;9.93;;;-0.10;17.30;;;;;;5035415;28;20538;-68
2024/01/15 01:27:42;;;;;;;26.63;11.53;;;-0.10;17.20;;;;;;5024832;28;20530;-67
2024/01/15 01:30:09;;;;;;;20.03;10.53;;;-0.10;17.30;;;;;;5025504;28;20554;-67
2024/01/15 01:32:36;;;;;;;22.57;11.93;;;0.00;17.20;;;;;;5023292;28;20516;-67
2024/01/15 01:35:05;;;;;;;21.73;10.90;;;0.00;17.10;;;;;;5023485;28;20462;-67
2024/01/15 01:37:32;;;;;;;27.17;10.70;;;0.10;17.10;;;;;;5024621;28;20471;-67
2024/01/15 01:39:59;;;;;;;23.67;11.93;;;0.10;17.00;;;;;;4978595;28;1345769;-68
2024/01/15 01:42:26;;;;;;;23.63;9.97;;;0.10;16.90;;;;;;5023466;28;20202;-67
2024/01/15 01:44:53;;;;;;;21.67;9.43;;;0.20;17.00;;;;;;5023713;28;20461;-68
2024/01/15 01:47:20;;;;;;;23.60;11.93;;;0.20;17.00;;;;;;5025784;28;20827;-67
2024/01/15 01:49:47;;;;;;;26.50;11.97;;;0.20;16.80;;;;;;5024191;28;20463;-68
2024/01/15 01:52:16;;;;;;;19.90;9.80;;;0.20;16.70;;;;;;5021673;28;20458;-67
2024/01/15 01:54:42;;;;;;;18.60;9.53;;;0.20;16.70;;;;;;5029469;28;20450;-68
2024/01/15 01:57:10;;;;;;;22.57;11.40;;;0.30;16.60;;;;;;5031618;28;20476;-67
2024/01/15 01:59:37;;;;;;;21.03;10.60;;;0.30;16.60;;;;;;5025535;28;20458;-67
2024/01/15 02:02:04;;;;;;;21.20;9.97;;;0.30;16.60;;;;;;5031380;28;20507;-67
2024/01/15 02:04:32;;;;;;;19.90;9.67;;;0.30;16.50;;;;;;5030781;28;20461;-67
2024/01/15 02:07:00;;;;;;;22.30;11.23;;;0.30;16.50;;;;;;5030099;28;20482;-68
2024/01/15 02:09:28;;;;;;;23.53;11.20;;;0.30;16.40;;;;;;5031757;28;20485;-67
2024/01/15 02:11:55;;;;;;;20.80;11.13;;;0.30;16.40;;;;;;5028720;28;20875;-67
2024/01/15 02:14:22;;;;;;;25.33;10.43;;;0.30;16.20;;;;;;5030059;28;20550;-68
2024/01/15 02:16:49;;;;;;;20.47;11.57;;;0.30;16.30;;;;;;5029902;28;20561;-68
2024/01/15 02:19:17;;;;;;;24.50;10.80;;;0.30;16.30;;;;;;5027765;28;21224;-68
2024/01/15 02:21:44;;;;;;;24.70;11.20;;;0.30;16.30;;;;;;5023696;28;20466;-68
2024/01/15 02:24:12;;;;;;;19.80;9.20;;;0.30;16.30;;;;;;5025344;28;20931;-68
2024/01/15 02:26:39;;;;;;;23.60;11.30;;;0.30;16.30;;;;;;5028284;28;20479;-68
2024/01/15 02:29:08;;;;;;;22.17;10.70;;;0.30;16.30;;;;;;5030716;28;20525;-68
2024/01/15 02:31:34;;;;;;;23.17;10.13;;;0.30;16.40;;;;;;5017109;28;20491;-68
2024/01/15 02:34:01;;;;;;;22.30;10.53;;;0.30;16.40;;;;;;5010675;28;20463;-68
2024/01/15 02:36:28;;;;;;;22.30;11.07;;;0.30;16.30;;;;;;5010810;28;20482;-68
2024/01/15 02:38:55;;;;;;;20.90;11.03;;;0.30;16.30;;;;;;5009458;28;20560;-68
2024/01/15 02:41:23;;;;;;;15.70;7.80;;;0.30;16.20;;;;;;5009006;28;20556;-68
2024/01/15 02:43:50;;;;;;;23.23;10.97;;;0.20;16.30;;;;;;5008301;28;20575;-67
2024/01/15 02:46:17;;;;;;;19.17;9.60;;;0.20;16.80;;;;;;5006932;28;20456;-68
2024/01/15 02:48:43;;;;;;;17.07;9.30;;;0.20;16.40;;;;;;5008736;28;21006;-67
2024/01/15 02:51:10;;;;;;;18.67;8.57;;;0.10;16.40;;;;;;5008081;28;20474;-67
2024/01/15 02:53:37;;;;;;;20.00;9.60;;;0.10;16.40;;;;;;5009290;28;20468;-66
2024/01/15 02:56:04;;;;;;;19.70;9.40;;;0.10;16.50;;;;;;5010483;28;20491;-66
2024/01/15 02:58:32;;;;;;;16.67;8.17;;;0.10;16.60;;;;;;5009546;28;20976;-66
2024/01/15 03:00:59;;;;;;;20.27;8.90;;;0.00;16.60;;;;;;5003778;28;20483;-66
2024/01/15 03:03:26;;;;;;;15.30;8.80;;;0.10;16.80;;;;;;5007683;28;20459;-67
2024/01/15 03:05:53;;;;;;;18.53;9.37;;;0.10;16.80;;;;;;5009739;28;20466;-68
2024/01/15 03:08:19;;;;;;;19.40;8.77;;;0.10;16.90;;;;;;5006039;28;20483;-67
2024/01/15 03:10:46;;;;;;;15.57;8.10;;;0.20;16.80;;;;;;5009096;28;20546;-66
2024/01/15 03:13:13;;;;;;;18.47;9.30;;;0.20;16.70;;;;;;5010833;28;20527;-67
2024/01/15 03:15:41;;;;;;;16.53;7.90;;;0.20;16.80;;;;;;5010760;28;20533;-67
2024/01/15 03:18:08;;;;;;;16.20;7.40;;;0.30;16.80;;;;;;5010519;28;21992;-68
2024/01/15 03:20:35;;;;;;;16.37;8.20;;;0.30;16.60;;;;;;5005907;28;21048;-68
2024/01/15 03:23:01;;;;;;;15.07;7.47;;;0.30;16.60;;;;;;5011237;28;20464;-68
2024/01/15 03:25:28;;;;;;;17.50;8.17;;;0.30;16.60;;;;;;5014279;28;20547;-68
2024/01/15 03:27:55;;;;;;;13.83;6.53;;;0.30;16.50;;;;;;5009747;28;20479;-68
2024/01/15 03:30:22;;;;;;;15.80;7.23;;;0.30;16.50;;;;;;5008983;28;20460;-68
2024/01/15 03:32:50;;;;;;;17.83;7.20;;;0.30;16.40;;;;;;5013301;28;20452;-67
2024/01/15 03:35:17;;;;;;;11.10;5.60;;;0.30;16.50;;;;;;5010045;28;20448;-68
2024/01/15 03:37:43;;;;;;;16.63;7.20;;;0.40;16.50;;;;;;5008981;28;20515;-68
2024/01/15 03:40:11;;;;;;;13.83;7.07;;;0.40;16.30;;;;;;5008328;28;20510;-68
2024/01/15 03:42:37;;;;;;;17.77;7.97;;;0.40;16.30;;;;;;5007532;28;20465;-68
2024/01/15 03:45:05;;;;;;;15.53;7.47;;;0.40;16.10;;;;;;5009362;28;20460;-68
2024/01/15 03:47:31;;;;;;;13.73;7.00;;;0.40;16.10;;;;;;5008620;28;20685;-67
2024/01/15 03:50:00;;;;;;;14.47;6.50;;;0.50;16.20;;;;;;5009697;28;20490;-68
2024/01/15 03:52:26;;;;;;;20.03;7.63;;;0.50;16.20;;;;;;5010398;28;20535;-68
2024/01/15 03:54:53;;;;;;;16.87;7.90;;;0.50;16.10;;;;;;5010188;28;20458;-68
2024/01/15 03:57:20;;;;;;;12.90;7.07;;;0.50;16.00;;;;;;5008676;28;20481;-68
2024/01/15 03:59:47;;;;;;;13.00;6.90;;;0.50;16.00;;;;;;5007628;28;20560;-68
2024/01/15 04:02:14;;;;;;;12.10;6.23;;;0.50;15.80;;;;;;5020789;28;20477;-68
2024/01/15 04:04:42;;;;;;;15.57;6.97;;;0.50;15.70;;;;;;5027621;28;20862;-67
2024/01/15 04:07:10;;;;;;;12.50;6.17;;;0.60;15.60;;;;;;5029058;28;20477;-68
2024/01/15 04:09:37;;;;;;;14.17;6.53;;;0.60;15.40;;;;;;5027459;28;20482;-68
2024/01/15 04:12:04;;;;;;;13.90;6.83;;;0.60;15.40;;;;;;5024527;28;20459;-67
2024/01/15 04:14:30;;;;;;;14.00;7.37;;;0.60;15.60;;;;;;5023022;28;20544;-66
2024/01/15 04:16:57;;;;;;;13.50;6.90;;;0.60;15.60;;;;;;5022177;28;20493;-67
2024/01/15 04:19:24;;;;;;;12.30;6.23;;;0.50;15.40;;;;;;5026945;28;20451;-67
2024/01/15 04:21:51;;;;;;;15.50;7.00;;;0.60;15.40;;;;;;5035905;28;20558;-66
2024/01/15 04:24:19;;;;;;;13.03;6.67;;;0.50;15.30;;;;;;5054730;28;20482;-67
2024/01/15 04:26:46;;;;;;;15.10;7.03;;;0.50;15.20;;;;;;5040812;28;21097;-67
2024/01/15 04:29:12;;;;;;;11.17;6.73;;;0.50;15.10;;;;;;5022987;28;20487;-67
2024/01/15 04:31:39;;;;;;;11.90;5.50;;;0.50;15.20;;;;;;5025999;28;20471;-66
2024/01/15 04:34:06;;;;;;;13.20;6.27;;;0.50;15.20;;;;;;5025449;28;20451;-67
2024/01/15 04:36:33;;;;;;;13.73;5.40;;;0.50;15.20;;;;;;5024782;28;20478;-67
2024/01/15 04:38:59;;;;;;;11.23;5.33;;;0.60;15.10;;;;;;5022759;28;20550;-67
2024/01/15 04:41:28;;;;;;;14.07;5.67;;;0.50;15.10;;;;;;5028486;28;20630;-67
2024/01/15 04:43:54;;;;;;;13.90;5.40;;;0.60;15.00;;;;;;5024553;28;20453;-67
2024/01/15 04:46:21;;;;;;;14.60;6.30;;;0.60;14.80;;;;;;5027511;28;20459;-67
2024/01/15 04:48:48;;;;;;;11.40;5.90;;;0.60;14.80;;;;;;5029307;28;20475;-67
2024/01/15 04:51:15;;;;;;;13.20;6.23;;;0.60;14.70;;;;;;5028473;28;20455;-67
2024/01/15 04:53:42;;;;;;;13.63;6.27;;;0.60;14.70;;;;;;5026076;28;20451;-67
2024/01/15 04:56:09;;;;;;;10.20;5.00;;;0.60;14.70;;;;;;5027862;28;20462;-67
2024/01/15 04:58:37;;;;;;;10.80;5.50;;;0.60;14.70;;;;;;5028659;28;20463;-67
2024/01/15 05:01:04;;;;;;;13.43;5.43;;;0.70;14.80;;;;;;5018416;28;20479;-67
2024/01/15 05:03:31;;;;;;;10.47;5.30;;;0.70;14.70;;;;;;5004681;28;20479;-67
2024/01/15 05:05:58;;;;;;;9.67;4.77;;;0.70;14.40;;;;;;5005752;28;20470;-66
2024/01/15 05:08:24;;;;;;;8.27;4.00;;;0.70;14.30;;;;;;5006373;28;20571;-66
2024/01/15 05:10:51;;;;;;;9.97;4.57;;;0.70;14.20;;;;;;5005869;28;20975;-66
2024/01/15 05:13:18;;;;;;;10.17;4.83;;;0.70;14.30;;;;;;5001302;28;20478;-66
2024/01/15 05:15:46;;;;;;;8.00;3.93;;;0.80;14.20;;;;;;5005692;28;20456;-66
2024/01/15 05:18:13;;;;;;;8.60;4.10;;;0.80;14.30;;;;;;5007603;28;20575;-66
2024/01/15 05:20:40;;;;;;;10.50;4.40;;;0.80;14.20;;;;;;5008056;28;20460;-66
2024/01/15 05:23:07;;;;;;;12.87;4.80;;;0.90;14.30;;;;;;5004287;28;20456;-67
2024/01/15 05:25:33;;;;;;;10.00;4.30;;;0.90;14.30;;;;;;5008857;28;20547;-67
2024/01/15 05:28:00;;;;;;;11.80;5.63;;;0.90;14.40;;;;;;5006850;28;20471;-69
2024/01/15 05:30:27;;;;;;;11.37;5.03;;;0.90;14.40;;;;;;5007309;28;20476;-69
2024/01/15 05:32:55;;;;;;;13.33;5.60;;;0.90;14.50;;;;;;5023438;28;20458;-68
2024/01/15 05:35:22;;;;;;;11.40;5.10;;;0.90;14.60;;;;;;5028884;28;20458;-68
2024/01/15 05:37:49;;;;;;;12.20;5.20;;;0.90;14.60;;;;;;5027397;28;20486;-68
2024/01/15 05:40:16;;;;;;;14.80;6.10;;;1.00;14.60;;;;;;5025986;28;20550;-68
2024/01/15 05:42:42;;;;;;;12.70;5.80;;;1.00;14.70;;;;;;5026618;28;20820;-68
2024/01/15 05:45:10;;;;;;;11.00;5.53;;;1.00;14.90;;;;;;5017775;28;20459;-67
2024/01/15 05:47:36;;;;;;;13.40;7.13;;;1.00;14.90;;;;;;5026187;28;20474;-68
2024/01/15 05:50:06;;;;;;;12.80;6.97;;;1.00;15.00;;;;;;5027986;28;20478;-68
2024/01/15 05:52:33;;;;;;;12.87;6.30;;;1.00;15.10;;;;;;5028278;28;20539;-68
2024/01/15 05:55:00;;;;;;;13.83;6.67;;;1.00;15.10;;;;;;5026610;28;20573;-68
2024/01/15 05:57:27;;;;;;;12.90;6.27;;;1.10;15.30;;;;;;5026774;28;20565;-67
2024/01/15 05:59:54;;;;;;;12.17;6.23;;;1.10;15.30;;;;;;5024513;28;20460;-67
2024/01/15 06:02:21;;;;;;;14.73;6.23;;;1.10;15.40;;;;;;5021751;28;20497;-67
2024/01/15 06:04:48;;;;;;;15.87;7.47;;;1.10;15.40;;;;;;5027680;28;20820;-68
2024/01/15 06:07:16;;;;;;;15.10;6.60;;;1.10;15.50;;;;;;5026628;28;20485;-68
2024/01/15 06:09:43;;;;;;;16.23;7.00;;;1.10;15.60;;;;;;5018962;28;20510;-68
2024/01/15 06:12:09;;;;;;;13.13;6.83;;;1.10;15.70;;;;;;5026663;28;21138;-67
2024/01/15 06:14:36;;;;;;;14.13;6.27;;;1.10;15.80;;;;;;5039219;22;21033;-67
2024/01/15 06:17:03;;;;;;;14.57;7.27;;;1.10;15.70;;;;;;5025867;28;20474;-68
2024/01/15 06:19:30;;;;;;;16.73;8.77;;;1.10;15.60;;;;;;5023798;28;20982;-67
2024/01/15 06:21:57;;;;;;;16.37;6.10;;;1.10;15.90;;;;;;5025204;28;20474;-68
2024/01/15 06:24:25;;;;;;;15.50;7.10;;;1.10;15.90;;;;;;5025541;28;20486;-68
2024/01/15 06:26:52;;;;;;;14.13;7.23;;;1.10;16.00;;;;;;5025340;28;20491;-71
2024/01/15 06:29:19;;;;;;;13.77;7.67;;;1.00;16.00;;;;;;5017949;28;20485;-69
2024/01/15 06:31:45;;;;;;;13.90;7.50;;;1.00;16.10;;;;;;5025859;28;20485;-69
2024/01/15 06:34:12;;;;;;;13.63;6.67;;;1.10;16.30;;;;;;5019603;28;20463;-69
2024/01/15 06:36:39;;;;;;;13.30;6.27;;;1.00;16.70;;;;;;5025733;28;20596;-69
2024/01/15 06:39:06;;;;;;;15.60;7.47;;;1.00;16.20;;;;;;5022456;28;20582;-69
2024/01/15 06:41:34;;;;;;;16.17;7.17;;;1.00;16.20;;;;;;5025619;28;20473;-70
2024/01/15 06:44:01;;;;;;;16.20;8.40;;;1.00;16.20;;;;;;5026571;28;20459;-70
2024/01/15 06:46:27;;;;;;;14.53;7.50;;;1.00;16.30;;;;;;5029972;28;20475;-71
2024/01/15 06:48:54;;;;;;;12.70;6.50;;;1.00;16.30;;;;;;5027902;28;20499;-70
2024/01/15 06:51:21;;;;;;;14.80;7.07;;;1.00;16.20;;;;;;5032842;28;20458;-70
2024/01/15 06:53:48;;;;;;;17.47;8.50;;;1.00;16.30;;;;;;5033600;28;20469;-70
2024/01/15 06:56:14;;;;;;;14.13;7.23;;;1.00;16.30;;;;;;5026974;28;20473;-67
2024/01/15 06:58:42;;;;;;;15.50;7.70;;;1.00;16.40;;;;;;5032199;28;20833;-69
2024/01/15 07:01:10;;;;;;;16.43;7.53;;;1.00;16.30;;;;;;5025104;28;20845;-67
2024/01/15 07:03:36;;;;;;;13.67;7.10;;;1.00;16.30;;;;;;5029344;28;20904;-67
2024/01/15 07:06:04;;;;;;;15.63;7.47;;;1.00;16.30;;;;;;5031903;28;20834;-67
2024/01/15 07:08:31;;;;;;;15.70;7.57;;;1.00;16.30;;;;;;5031250;28;20554;-67
2024/01/15 07:10:57;;;;;;;17.13;7.30;;;1.00;16.20;;;;;;5029360;28;20475;-67
2024/01/15 07:13:24;;;;;;;14.63;7.60;;;1.00;16.20;;;;;;5029528;28;20459;-67
2024/01/15 07:15:52;;;;;;;15.23;7.47;;;1.00;16.10;;;;;;5027311;28;20463;-68
2024/01/15 07:18:19;;;;;;;16.30;8.13;;;0.90;16.20;;;;;;5029790;28;20521;-67
2024/01/15 07:20:46;;;;;;;18.00;7.90;;;1.00;16.30;;;;;;5031119;28;20459;-74
2024/01/15 07:23:13;;;;;;;15.30;7.33;;;1.00;16.30;;;;;;5031427;28;20550;-68
2024/01/15 07:25:39;;;;;;;15.27;7.90;;;1.00;16.20;;;;;;5027710;28;20459;-68
2024/01/15 07:28:06;;;;;;;14.37;7.50;;;1.00;16.20;;;;;;5030237;28;20855;-68
2024/01/15 07:30:33;;;;;;;17.23;8.10;;;1.00;16.20;;;;;;5028870;28;21038;-71
2024/01/15 07:33:04;;;;;;;14.03;6.73;;;1.00;16.00;;;;;;5028601;28;20462;-71
2024/01/15 07:35:31;;;;;;;15.43;7.97;;;1.10;15.90;;;;;;5030254;28;20467;-71
2024/01/15 07:37:57;;;;;;;20.50;7.70;;;1.10;15.80;;;;;;5031467;28;20535;-71
2024/01/15 07:40:24;;;;;;;14.20;6.73;;;1.10;15.50;;;;;;5029871;28;20538;-71
2024/01/15 07:42:51;;;;;;;16.53;7.50;;;1.10;15.20;;;;;;5030848;28;20463;-71
2024/01/15 07:45:18;;;;;;;15.30;7.20;;;1.10;15.00;;;;;;5029177;28;20486;-70
2024/01/15 07:47:45;;;;;;;14.20;6.60;;;1.10;15.10;;;;;;5024696;28;20570;-70
2024/01/15 07:50:13;;;;;;;11.43;5.73;;;1.10;15.30;;;;;;5029650;28;20494;-71
2024/01/15 07:52:41;;;;;;;13.07;6.83;;;1.10;15.40;;;;;;5027935;28;21082;-71
2024/01/15 07:55:08;;;;;;;12.00;6.90;;;1.20;15.10;;;;;;5032367;28;20496;-71
2024/01/15 07:57:36;;;;;;;12.37;6.50;;;1.20;15.10;;;;;;5030627;28;20997;-71
2024/01/15 08:00:04;;;;;;;15.37;6.50;;;1.20;14.90;;;;;;5031798;28;20458;-71
2024/01/15 08:02:31;;;;;;;13.20;7.07;;;1.20;14.90;;;;;;5030763;28;20486;-69
2024/01/15 08:04:59;;;;;;;12.73;6.50;;;1.20;14.90;;;;;;5027655;28;20467;-69
2024/01/15 08:07:27;;;;;;;14.83;6.70;;;1.20;14.70;;;;;;5023406;28;20489;-69
2024/01/15 08:09:54;;;;;;;10.50;5.67;;;1.30;14.80;;;;;;5030245;28;20479;-68
2024/01/15 08:12:22;;;;;;;12.47;6.97;;;1.30;14.70;;;;;;5030938;28;20943;-71
2024/01/15 08:14:49;;;;;;;11.97;5.87;;;1.30;14.80;;;;;;5029737;28;20494;-71
2024/01/15 08:17:16;;;;;;;9.07;4.70;;;1.40;14.40;;;;;;5020616;28;20485;-75
2024/01/15 08:19:43;;;;;;;15.83;6.33;;;1.40;14.50;;;;;;5007267;28;20580;-70
2024/01/15 08:22:11;;;;;;;11.67;5.80;;;1.40;14.00;;;;;;5025790;28;20521;-72
2024/01/15 08:24:39;;;;;;;10.93;5.60;;;1.40;13.90;;;;;;5029951;28;20494;-69
2024/01/15 08:27:05;;;;;;;10.93;4.33;;;1.50;13.80;;;;;;5029018;28;20487;-70
2024/01/15 08:29:34;;;;;;;13.50;6.13;;;1.50;13.20;;;;;;5029760;28;20479;-71
2024/01/15 08:32:01;;;;;;;11.87;6.50;;;1.60;13.10;;;;;;5020896;28;21042;-71
2024/01/15 08:34:28;;;;;;;12.00;6.10;;;1.60;13.20;;;;;;5028880;28;20450;-71
2024/01/15 08:36:56;;;;;;;11.83;5.07;;;1.60;13.10;;;;;;5028119;28;20492;-72
2024/01/15 08:39:23;;;;;;;11.97;5.30;;;1.60;12.70;;;;;;5025865;28;20534;-73
2024/01/15 08:41:51;;;;;;;9.67;5.33;;;1.60;12.80;;;;;;5025469;28;20454;-72
2024/01/15 08:44:18;;;;;;;13.20;5.77;;;1.70;12.50;;;;;;5027052;28;20554;-71
2024/01/15 08:46:45;;;;;;;12.13;5.40;;;1.70;12.20;;;;;;5028306;28;20860;-70
2024/01/15 08:49:11;;;;;;;10.63;4.53;;;1.70;12.20;;;;;;5030065;28;20927;-69
2024/01/15 08:51:39;;;;;;;9.47;4.30;;;1.80;12.10;;;;;;5023674;28;20576;-70
2024/01/15 08:54:06;;;;;;;8.60;4.30;;;1.80;11.70;;;;;;5026199;28;20455;-70
2024/01/15 08:56:35;;;;;;;9.40;4.57;;;1.80;11.50;;;;;;5021129;28;20518;-70
2024/01/15 08:59:03;;;;;;;8.67;4.30;;;1.90;11.40;;;;;;5029096;28;20558;-70
2024/01/15 09:01:30;;;;;;;11.63;4.37;;;1.90;11.40;;;;;;5023726;28;20505;-70
2024/01/15 09:03:57;;;;;;;9.73;4.50;;;2.00;11.40;;;;;;5028535;28;21256;-68
2024/01/15 09:06:24;;;;;;;7.17;3.70;;;2.00;11.40;;;;;;5027172;28;20485;-70
2024/01/15 09:08:51;;;;;;;8.17;4.10;;;2.10;11.40;;;;;;5024449;28;20943;-69
2024/01/15 09:11:18;;;;;;;9.33;4.10;;;2.20;11.40;;;;;;5025251;28;20490;-67
2024/01/15 09:13:44;;;;;;;13.07;3.83;;;2.30;11.30;;;;;;5023537;28;20556;-69
2024/01/15 09:16:12;;;;;;;7.03;3.23;;;2.40;10.30;;;;;;5016778;28;21500;-69
2024/01/15 09:18:39;;;;;;;7.83;3.97;;;2.40;10.00;;;;;;5023635;28;20844;-70
2024/01/15 09:21:06;;;;;;;7.63;3.80;;;2.50;9.80;;;;;;5025281;28;20461;-69
2024/01/15 09:23:33;;;;;;;7.23;3.47;;;2.60;9.60;;;;;;5023537;28;20960;-68
2024/01/15 09:25:59;;;;;;;7.87;4.43;;;2.70;9.30;;;;;;5028826;28;20462;-68
2024/01/15 09:28:26;;;;;;;7.43;3.47;;;3.10;10.00;;;;;;5026332;28;20573;-71
2024/01/15 09:30:53;;;;;;;7.07;3.10;;;3.80;9.80;;;;;;5024961;28;20507;-68
2024/01/15 09:33:21;;;;;;;9.73;2.90;;;4.40;8.30;;;;;;5028806;28;20458;-69
2024/01/15 09:35:48;;;;;;;6.73;3.27;;;5.10;6.60;;;;;;5028247;28;20486;-68
2024/01/15 09:38:15;;;;;;;7.70;3.43;;;6.00;5.30;;;;;;5022781;28;20482;-66
2024/01/15 09:40:46;;;;;;;6.50;2.93;;;6.80;3.40;;;;;;5027206;28;20459;-74
2024/01/15 09:43:14;;;;;;;6.97;3.20;;;7.00;1.30;;;;;;5028168;28;20554;-68
2024/01/15 09:45:41;;;;;;;5.77;2.77;;;7.10;1.00;;;;;;5026550;28;20455;-70
2024/01/15 09:48:08;;;;;;;6.30;3.00;;;7.20;1.00;;;;;;5022868;28;20505;-68
2024/01/15 09:50:36;;;;;;;8.27;3.20;;;7.20;1.00;;;;;;5021041;28;20493;-69
2024/01/15 09:53:04;;;;;;;6.60;3.00;;;7.20;1.00;;;;;;5026234;28;20467;-69
2024/01/15 09:55:32;;;;;;;6.00;2.50;;;7.10;1.00;;;;;;5026285;28;20463;-68
2024/01/15 09:58:01;;;;;;;6.40;2.70;;;7.00;1.00;;;;;;5025801;28;20579;-75
2024/01/15 10:00:31;;;;;;;5.77;2.40;;;7.00;1.00;;;;;;5026498;28;20454;-73
2024/01/15 10:02:57;;;;;;;7.83;2.57;;;6.90;1.00;;;;;;5025408;28;20459;-74
2024/01/15 10:05:24;;;;;;;6.67;2.53;;;6.90;1.00;;;;;;5023705;28;20462;-76
2024/01/15 10:07:55;;;;;;;5.57;2.47;;;6.90;1.00;;;;;;5018631;28;20478;-73
2024/01/15 10:10:22;;;;;;;5.50;2.43;;;6.90;1.00;;;;;;5028088;28;20478;-76
2024/01/15 10:12:50;;;;;;;5.40;2.60;;;6.90;1.00;;;;;;5026030;28;20473;-76
2024/01/15 10:15:17;;;;;;;5.67;2.63;;;6.90;1.00;;;;;;5027028;28;20470;-72
2024/01/15 10:17:44;;;;;;;5.60;2.77;;;6.90;1.00;;;;;;5028416;28;20510;-77
2024/01/15 10:20:12;;;;;;;5.53;2.40;;;6.80;1.00;;;;;;5030232;28;21056;-70
2024/01/15 10:22:41;;;;;;;6.70;2.73;;;6.70;1.00;;;;;;5029860;28;20469;-69
2024/01/15 10:25:11;;;;;;;5.47;2.50;;;6.50;1.00;;;;;;5025291;28;20838;-70
2024/01/15 10:27:38;;;;;;;6.63;3.00;;;6.40;1.00;;;;;;5031141;28;20489;-70
2024/01/15 10:30:06;;;;;;;5.47;2.20;;;6.30;1.00;;;;;;5027346;28;20459;-70
2024/01/15 10:32:32;;;;;;;6.47;2.60;;;6.10;1.10;;;;;;5027981;28;20471;-70
2024/01/15 10:34:59;;;;;;;4.30;2.00;;;6.00;1.00;;;;;;5026324;28;20473;-71
2024/01/15 10:37:27;;;;;;;6.27;2.37;;;5.90;1.50;;;;;;5029478;28;20489;-71
2024/01/15 10:39:53;;;;;;;4.67;2.20;;;5.70;1.80;;;;;;5029363;28;20462;-71
2024/01/15 10:42:21;;;;;;;8.87;2.73;;;5.60;1.80;;;;;;5029724;28;20559;-67
2024/01/15 10:44:48;;;;;;;5.53;2.30;;;5.50;2.20;;;;;;5029074;28;20466;-66
2024/01/15 10:47:16;;;;;;;4.30;1.90;;;5.40;2.30;;;;;;5029768;28;20529;-71
2024/01/15 10:49:43;;;;;;;5.97;2.60;;;5.30;2.30;;;;;;5031293;28;20454;-72
2024/01/15 10:52:10;;;;;;;7.20;2.50;;;5.20;2.10;;;;;;5030607;28;20478;-70
2024/01/15 10:54:39;;;;;;;5.87;2.17;;;5.10;2.30;;;;;;5026394;28;20467;-72
2024/01/15 10:57:07;;;;;;;4.70;2.13;;;5.10;2.60;;;;;;5028129;28;20482;-71
2024/01/15 10:59:37;;;;;;;3.90;1.70;;;5.10;2.50;;;;;;5028246;28;20561;-72
2024/01/15 11:02:04;;;;;;;4.70;1.90;;;5.10;2.80;;;;;;5030329;28;20474;-70
2024/01/15 11:04:33;;;;;;;6.80;2.10;;;5.30;3.00;;;;;;5040703;28;20506;-74
2024/01/15 11:07:00;;;;;;;6.30;1.70;;;5.50;2.90;;;;;;5032987;28;20571;-75
2024/01/15 11:09:27;;;;;;;5.60;2.07;;;6.00;2.70;;;;;;5023604;28;20464;-71
2024/01/15 11:12:08;;;;;;;5.50;1.90;;;6.30;2.10;;;;;;5023434;28;20481;-72
2024/01/15 11:14:39;;;;;;;8.60;1.73;;;6.40;1.00;;;;;;5028792;28;21092;-72
2024/01/15 11:17:06;;;;;;;3.77;1.40;;;6.40;1.00;;;;;;5024733;28;20483;-67
2024/01/15 11:19:43;;;;;;;6.03;2.33;;;6.30;1.00;;;;;;5028635;28;20951;-69
2024/01/15 11:22:11;;;;;;;3.67;1.47;;;6.20;1.00;;;;;;5016659;28;20476;-69
2024/01/15 11:24:39;;;;;;;6.67;2.53;;;6.10;1.00;;;;;;5029256;28;20470;-69
2024/01/15 11:27:06;;;;;;;5.37;2.27;;;6.00;1.00;;;;;;5021983;28;20566;-69
2024/01/15 11:29:36;;;;;;;6.50;2.90;;;5.90;1.00;;;;;;5030069;28;20566;-68
2024/01/15 11:32:05;;;;;;;5.30;2.50;;;5.80;1.30;;;;;;5025616;28;20482;-68
2024/01/15 11:34:52;;;;;;;11.00;3.43;;;5.60;1.90;;;;;;5030513;28;20536;-68
2024/01/15 11:37:19;;;;;;;6.93;3.10;;;5.50;2.50;;;;;;5028223;28;20482;-68
2024/01/15 11:39:46;;;;;;;5.13;2.63;;;5.40;2.70;;;;;;5028569;28;20458;-68
2024/01/15 11:42:14;;;;;;;11.47;5.53;;;5.20;3.00;;;;;;5023743;28;20964;-68
2024/01/15 11:44:44;;;;;;;8.20;4.67;;;5.20;3.40;;;;;;5026343;28;20518;-68
2024/01/15 11:47:13;;;;;;;7.47;3.80;;;5.10;3.60;;;;;;5029833;28;20475;-68
2024/01/15 11:50:00;;;;;;;6.20;3.20;;;5.00;3.80;;;;;;5027522;28;20455;-70
2024/01/15 11:52:30;;;;;;;10.23;3.37;;;5.00;4.20;;;;;;5022938;28;20486;-70
2024/01/15 11:55:08;;;;;;;6.30;2.90;;;4.90;4.40;;;;;;5021234;28;20467;-68
2024/01/15 11:57:43;;;;;;;7.37;3.20;;;4.90;4.40;;;;;;5020001;28;20495;-68
2024/01/15 12:00:12;;;;;;;6.53;2.50;;;4.80;5.10;;;;;;5022859;28;20488;-70
2024/01/15 12:02:41;;;;;;;7.70;3.20;;;4.80;4.70;;;;;;5018375;28;20477;-71
2024/01/15 12:05:08;;;;;;;6.07;3.20;;;4.70;4.80;;;;;;5023332;28;20463;-73
2024/01/15 12:07:35;;;;;;;6.50;3.33;;;4.70;5.20;;;;;;5023725;28;20852;-71
2024/01/15 12:10:02;;;;;;;6.43;2.67;;;4.70;5.30;;;;;;5023087;28;21124;-71
2024/01/15 12:12:38;;;;;;;6.27;2.87;;;4.70;5.30;;;;;;5023472;28;21007;-69
2024/01/15 12:15:06;;;;;;;5.73;2.97;;;4.70;5.30;;;;;;5018665;28;21195;-70
2024/01/15 12:17:34;;;;;;;6.53;3.00;;;4.60;5.20;;;;;;5027483;28;20483;-71
2024/01/15 12:20:01;;;;;;;6.20;3.33;;;4.60;5.60;;;;;;5023683;28;20977;-70
2024/01/15 12:22:28;;;;;;;6.27;3.70;;;4.50;5.50;;;;;;5023013;28;20558;-70
2024/01/15 12:24:55;;;;;;;5.27;2.53;;;4.50;5.80;;;;;;5021860;28;20467;-70
2024/01/15 12:27:22;;;;;;;7.77;4.50;;;4.50;6.00;;;;;;5027333;28;20520;-69
2024/01/15 12:29:49;;;;;;;8.13;3.33;;;4.40;5.90;;;;;;5019412;28;20482;-69
2024/01/15 12:32:16;;;;;;;7.67;3.63;;;4.40;6.10;;;;;;5022608;28;20485;-69
2024/01/15 12:34:44;;;;;;;6.13;3.20;;;4.40;5.90;;;;;;5026702;28;20463;-69
2024/01/15 12:37:12;;;;;;;5.63;3.10;;;4.40;6.10;;;;;;5014439;28;20491;-70
2024/01/15 12:39:39;;;;;;;6.40;3.27;;;4.50;6.30;;;;;;5024772;28;20471;-71
2024/01/15 12:42:06;;;;;;;8.50;4.10;;;4.50;6.20;;;;;;5022151;28;20463;-72
2024/01/15 12:44:32;;;;;;;9.60;4.90;;;4.50;6.20;;;;;;5023714;28;21145;-69
2024/01/15 12:46:59;;;;;;;7.47;4.00;;;4.50;6.50;;;;;;5024259;28;20470;-71
2024/01/15 12:49:26;;;;;;;7.93;3.73;;;4.50;6.90;;;;;;5027699;28;20216;-73
2024/01/15 12:51:55;;;;;;;10.33;5.10;;;4.50;6.70;;;;;;5023836;28;20487;-72